Portland International Airport
KPDX : now visible

Airfield :











YOU CAN JOIN US ON...

 
LOGIN :

Register | Disclaimer

   EN    FR    IT 

 









Legend :    VFR   Marginal VFR   IFR   Intensive IFR   Very Intensive IFR
Visi :
Ceiling :
>= 8 km
>= 3000ft
5 to 8 km
1000 to 3000 ft
1500m to 5 km
500 to 1000 ft
800 to 1500m
200 to 500 ft
< 800m
< 200 ft
Symbols :   Thunderstorms  Fog  Heavy snow  Heavy precipitations  Wind > 20 kt






- Airport Elevation : 31 ft
- IATA code : PDX


KPDX - Portland International

CURRENT METAR :
  • 080753Z 08004KT 10SM OVC007 07/06 A2986 RMK AO2 SLP111 T00720061 400780061

EXPIRED METARs :
  • 080653Z 09004KT 10SM OVC008 08/06 A2984 RMK AO2 SLP105 T00780061
  • 080553Z 00000KT 10SM BKN009 OVC016 08/06 A2982 RMK AO2 SLP098 60002 T00780061 10078 20072 52017

TAF KPDX
Valid from the 08 at 06:00 until the 09 at 06:00 UTC


080521Z 0806/0906 VRB03KT P6SM BKN009 OVC015
FM080800 VRB03KT 2SM BR BKN004 OVC015
FM081400 00000KT 1SM BR OVC003
FM081900 00000KT 6SM BR OVC007
FM082100 00000KT 6SM BR SCT007 BKN020 OVC040



MET'MAP, your aeronautical weather chart ! - Copyright ORBIFLY December 2007 - Disclaimer

ORBIFLY MET'MAP TEAM :

Programming & Development : Alexandra Zaïnal
Concept & original design : Baudouin d'Aumeries
Assistance for programming : Marc-Olivier Méhu
Technical & hardware support : Manuel Goepfert

Contact : metmap@orbifly.com




SOURCES & CREDITS :

   NOAA       Earth
Advisory